Time;durP1;ratioP1;P1;durP2;ratioP2;P2;SDS_P1;SDS_P2;PMS_P1;PMS_P2;Temp;Humidity;BMP_temperature;BMP_pressure;BME280_temperature;BME280_humidity;BME280_pressure;Samples;Min_cycle;Max_cycle;Signal;HPM_P1;HPM_P2
2023/10/15 08:36:55;;;;;;;9.20;2.50;;;;;;;11.56;72.73;98791.77;102055;1297;639328;-79
2023/10/15 08:39:29;;;;;;;11.40;2.90;;;;;;;11.60;72.81;98782.68;104997;1261;94329;-75
2023/10/15 08:42:00;;;;;;;9.70;2.90;;;;;;;11.70;72.65;98791.17;105011;1262;94234;-73
2023/10/15 08:44:29;;;;;;;9.80;2.70;;;;;;;11.77;72.89;98800.54;104950;1262;107001;-72
2023/10/15 08:47:01;;;;;;;13.10;2.90;;;;;;;11.87;72.51;98809.28;105176;1262;95203;-73
2023/10/15 08:49:36;;;;;;;13.70;2.50;;;;;;;11.97;72.43;98807.92;105057;1257;146169;-75
2023/10/15 08:52:31;;;;;;;12.30;2.50;;;;;;;12.04;71.13;98805.11;105205;1253;95238;-77
2023/10/15 08:55:12;;;;;;;12.00;2.50;;;;;;;12.11;70.26;98805.56;105549;1257;94221;-77
2023/10/15 08:58:06;;;;;;;11.70;3.00;;;;;;;12.14;69.81;98795.77;105168;1261;106843;-76
2023/10/15 09:01:15;;;;;;;;;;;;;;;;;;;;;
2023/10/15 09:04:09;;;;;;;13.90;3.00;;;;;;;12.20;69.94;98799.55;105543;1258;107431;-81
2023/10/15 09:07:47;;;;;;;14.30;2.80;;;;;;;12.17;68.55;98793.86;106335;1260;95246;-80
2023/10/15 09:10:29;;;;;;;15.50;2.60;;;;;;;12.25;70.39;98793.41;105204;1260;95329;-82
2023/10/15 09:13:07;;;;;;;11.50;2.60;;;;;;;12.32;69.11;98796.72;105662;1258;108545;-82
2023/10/15 09:36:03;;;;;;;;;;;;;;;;;;;;;
2023/10/15 09:39:15;;;;;;;10.70;2.50;;;;;;;12.62;65.84;98781.02;105047;1270;304575;-79
2023/10/15 09:42:57;;;;;;;14.60;2.40;;;;;;;12.55;66.16;98775.95;105593;1264;94522;-80
2023/10/15 09:47:01;;;;;;;11.90;2.20;;;;;;;12.46;65.80;98771.22;105935;1264;108879;-83
2023/10/15 10:09:00;;;;;;;8.30;2.20;;;;;;;12.85;63.00;98772.36;105342;1281;94314;-80
2023/10/15 10:28:10;;;;;;;;;;;;;;;;;;;;;
2023/10/15 10:31:21;;;;;;;9.80;2.60;;;;;;;12.91;61.23;98773.20;100433;1277;5202318;-81
2023/10/15 10:35:13;;;;;;;;;;;;;;;;;;;;;
2023/10/15 10:39:22;;;;;;;12.40;2.60;;;;;;;12.69;58.76;98781.91;104755;1272;109319;-82
2023/10/15 10:42:37;;;;;;;7.00;2.00;;;;;;;12.52;59.11;98781.39;105729;1262;94474;-81
2023/10/15 10:45:56;;;;;;;9.80;2.30;;;;;;;12.45;58.64;98791.86;108297;1256;108794;-81
2023/10/15 11:03:08;;;;;;;10.70;2.50;;;;;;;12.82;58.78;98779.92;104799;1252;3221281;-82
2023/10/15 11:05:54;;;;;;;9.40;2.30;;;;;;;12.72;60.61;98775.95;107859;1243;94479;-81
2023/10/15 11:08:28;;;;;;;12.10;2.90;;;;;;;12.69;61.09;98771.22;108186;1241;107527;-82
2023/10/15 11:11:26;;;;;;;;;;;;;;;;;;;;;
2023/10/15 11:15:24;;;;;;;;;;;;;;;;;;;;;
2023/10/15 11:18:37;;;;;;;;;;;;;;;;;;;;;
2023/10/15 11:21:48;;;;;;;10.50;2.20;;;;;;;12.32;59.69;98769.48;108997;1234;94250;-81
2023/10/15 11:24:48;;;;;;;11.70;2.80;;;;;;;12.36;59.98;98768.45;108662;1236;108507;-80
2023/10/15 11:27:46;;;;;;;9.00;2.40;;;;;;;12.41;60.42;98765.27;108476;1234;94618;-83
2023/10/15 11:31:15;;;;;;;;;;;;;;;;;;;;;
2023/10/15 11:33:56;;;;;;;13.00;2.50;;;;;;;12.41;58.75;98748.52;108524;1239;95258;-81
2023/10/15 11:36:39;;;;;;;12.00;2.80;;;;;;;12.39;60.07;98743.56;108188;1233;95146;-80
2023/10/15 11:39:38;;;;;;;11.70;2.20;;;;;;;12.38;58.22;98736.34;108968;1234;108531;-81
2023/10/15 11:42:30;;;;;;;;;;;;;;;;;;;;;
2023/10/15 11:46:00;;;;;;;10.30;2.50;;;;;;;12.26;59.08;98716.16;108555;1232;107592;-81
2023/10/15 11:49:00;;;;;;;14.40;2.80;;;;;;;12.24;58.54;98708.17;108273;1234;95282;-81
2023/10/15 11:52:01;;;;;;;9.50;2.10;;;;;;;12.27;59.46;98716.42;108582;1236;95246;-80
2023/10/15 11:55:07;;;;;;;9.50;2.60;;;;;;;12.30;58.03;98726.15;107903;1241;108536;-80
2023/10/15 11:58:45;;;;;;;7.40;2.10;;;;;;;12.26;57.39;98734.99;107612;1234;98570;-80
2023/10/15 12:02:22;;;;;;;;;;;;;;;;;;;;;
2023/10/15 12:06:35;;;;;;;;;;;;;;;;;;;;;
2023/10/15 12:14:14;;;;;;;;;;;;;;;;;;;;;
2023/10/15 12:17:27;;;;;;;5.50;2.00;;;;;;;12.29;57.42;98728.05;107958;1240;95931;-81
2023/10/15 12:21:43;;;;;;;;;;;;;;;;;;;;;
2023/10/15 12:39:05;;;;;;;;;;;;;;;;;;;;;
2023/10/15 12:46:35;;;;;;;;;;;;;;;;;;;;;
2023/10/15 12:50:27;;;;;;;4.90;1.60;;;;;;;12.31;54.56;98760.69;108192;1251;95906;-81
2023/10/15 12:53:46;;;;;;;9.60;2.10;;;;;;;12.18;53.41;98757.23;107274;1246;108796;-81
2023/10/15 13:17:19;;;;;;;;;;;;;;;;;;;;;
2023/10/15 13:21:42;;;;;;;18.10;6.50;;;;;;;11.92;56.56;98780.80;104958;1268;107744;-81
2023/10/15 13:41:26;;;;;;;;;;;;;;;;;;;;;
2023/10/15 13:44:59;;;;;;;20.20;4.50;;;;;;;11.93;56.24;98780.77;103479;1243;94369;-79
2023/10/15 13:49:19;;;;;;;13.60;3.30;;;;;;;11.77;56.33;98793.39;108242;1249;106931;-76
2023/10/15 13:53:12;;;;;;;;;;;;;;;;;;;;;
2023/10/15 14:01:25;;;;;;;;;;;;;;;;;;;;;
2023/10/15 14:03:54;;;;;;;18.50;4.00;;;;;;;11.41;56.85;98747.52;108018;1267;92420;-77
2023/10/15 14:06:36;;;;;;;18.60;4.20;;;;;;;11.36;56.74;98739.55;108760;1251;110872;-76
2023/10/15 14:09:08;;;;;;;17.90;4.20;;;;;;;11.38;57.20;98749.85;109799;1244;95564;-77
2023/10/15 14:11:37;;;;;;;14.70;3.80;;;;;;;11.40;56.92;98754.02;111027;1234;107708;-76
2023/10/15 14:14:06;;;;;;;11.40;3.10;;;;;;;11.37;57.00;98763.79;111508;1231;92834;-77
2023/10/15 14:16:33;;;;;;;14.10;3.70;;;;;;;11.36;57.14;98770.99;111578;1230;93238;-75
2023/10/15 14:19:01;;;;;;;21.80;9.40;;;;;;;11.34;57.01;98772.23;111577;1235;108342;-76
2023/10/15 14:21:28;;;;;;;27.20;11.50;;;;;;;11.28;56.91;98776.23;111849;1231;92792;-77
2023/10/15 15:22:23;;;;;;;21.10;6.30;;;;;;;11.05;58.11;98739.52;109492;1254;108273;-78
2023/10/15 15:24:50;;;;;;;20.20;6.60;;;;;;;11.07;58.20;98736.20;109592;1239;95546;-75
2023/10/15 15:27:39;;;;;;;22.90;7.00;;;;;;;11.07;58.16;98740.58;110542;1240;108035;-76
2023/10/15 15:31:29;;;;;;;20.50;6.90;;;;;;;11.04;58.15;98760.77;111037;1239;92994;-83
2023/10/15 15:33:56;;;;;;;41.30;23.50;;;;;;;11.00;58.27;98777.55;110757;1235;93337;-81
2023/10/15 15:36:27;;;;;;;47.00;28.10;;;;;;;10.99;58.21;98800.86;110997;1240;108443;-85
2023/10/15 15:39:25;;;;;;;38.20;21.80;;;;;;;10.99;58.36;98805.63;110999;1241;95511;-85
2023/10/15 15:42:21;;;;;;;28.00;12.00;;;;;;;10.95;58.34;98798.49;110961;1240;108269;-83
2023/10/15 15:45:56;;;;;;;;;;;;;;;;;;;;;
2023/10/15 15:48:59;;;;;;;23.30;9.10;;;;;;;10.91;58.47;98792.27;111274;1234;93169;-95
2023/10/15 15:59:51;;;;;;;23.20;8.60;;;;;;;10.85;58.61;98804.28;110509;1238;107160;-77
2023/10/15 16:02:19;;;;;;;21.80;7.80;;;;;;;10.83;58.69;98808.16;110593;1238;92868;-77
2023/10/15 16:04:48;;;;;;;22.20;7.90;;;;;;;10.80;58.68;98808.36;110714;1238;92978;-76
2023/10/15 16:07:23;;;;;;;21.30;7.70;;;;;;;10.77;58.69;98802.61;110709;1238;107956;-76
2023/10/15 16:09:56;;;;;;;21.00;7.90;;;;;;;10.74;58.72;98795.34;110641;1238;94545;-77
2023/10/15 16:12:30;;;;;;;21.80;10.00;;;;;;;10.72;58.75;98796.23;110802;1235;108487;-78
2023/10/15 16:15:31;;;;;;;22.20;8.50;;;;;;;10.69;58.86;98801.55;110909;1235;93184;-78
2023/10/15 16:18:11;;;;;;;19.20;7.00;;;;;;;10.64;58.81;98801.47;111002;1235;92832;-78
2023/10/15 16:47:48;;;;;;;35.60;16.70;;;;;;;10.82;59.01;98815.88;103686;1288;648749;-90
2023/10/15 16:50:16;;;;;;;36.40;17.40;;;;;;;10.78;59.12;98814.17;105024;1272;228222;-90
2023/10/15 16:52:45;;;;;;;36.30;16.70;;;;;;;10.69;59.16;98816.64;105336;1269;94217;-89
2023/10/15 16:55:14;;;;;;;33.40;16.00;;;;;;;10.60;59.28;98821.27;105222;1266;107277;-92
2023/10/15 16:57:43;;;;;;;31.20;15.10;;;;;;;10.48;59.33;98820.56;105772;1266;95363;-91
2023/10/15 17:00:11;;;;;;;30.30;13.70;;;;;;;10.41;59.34;98821.80;108628;1257;106161;-90
2023/10/15 17:02:39;;;;;;;33.50;15.60;;;;;;;10.34;59.41;98822.63;108755;1260;91610;-91
2023/10/15 17:05:08;;;;;;;34.70;18.30;;;;;;;10.30;59.40;98819.04;108588;1256;91726;-90
2023/10/15 17:07:36;;;;;;;35.80;19.40;;;;;;;10.26;59.36;98826.77;108788;1257;105813;-90
2023/10/15 17:10:05;;;;;;;34.10;17.50;;;;;;;10.24;59.41;98826.60;108809;1257;94259;-90
2023/10/15 17:13:08;;;;;;;30.60;15.40;;;;;;;10.19;59.38;98825.04;108397;1256;106307;-91
2023/10/15 17:15:40;;;;;;;30.50;16.10;;;;;;;10.09;59.35;98824.66;108618;1256;92663;-90
2023/10/15 17:18:09;;;;;;;34.40;16.60;;;;;;;10.02;59.38;98831.39;108902;1254;93873;-89
2023/10/15 17:20:37;;;;;;;29.60;14.00;;;;;;;9.95;59.37;98834.36;108384;1256;107576;-90
2023/10/15 17:23:05;;;;;;;27.50;12.40;;;;;;;9.88;59.43;98830.63;108262;1254;95143;-91
2023/10/15 17:25:35;;;;;;;27.90;12.80;;;;;;;9.82;59.39;98834.12;108199;1254;106287;-90
2023/10/15 17:28:05;;;;;;;27.50;11.70;;;;;;;9.78;59.41;98839.13;108353;1254;95145;-91
2023/10/15 17:30:36;;;;;;;24.00;8.90;;;;;;;9.73;59.45;98844.17;107989;1253;94403;-91
2023/10/15 17:33:05;;;;;;;20.80;8.20;;;;;;;9.70;59.47;98848.80;108317;1253;108138;-90
2023/10/15 17:35:34;;;;;;;25.70;9.10;;;;;;;9.68;59.47;98844.31;108532;1254;93937;-90
2023/10/15 17:38:06;;;;;;;27.30;8.60;;;;;;;9.64;59.53;98841.40;108076;1253;107313;-89
2023/10/15 17:40:35;;;;;;;22.30;7.50;;;;;;;9.59;59.56;98835.39;108381;1253;92904;-91
2023/10/15 17:43:03;;;;;;;21.00;8.00;;;;;;;9.52;59.58;98836.27;108025;1254;94938;-89
2023/10/15 17:45:32;;;;;;;25.40;9.00;;;;;;;9.46;59.69;98836.30;107987;1254;107433;-89
2023/10/15 17:48:03;;;;;;;23.90;9.00;;;;;;;9.46;59.72;98836.30;107219;1254;94459;-90
2023/10/15 17:50:31;;;;;;;25.70;10.10;;;;;;;9.46;59.84;98831.05;106407;1257;107694;-91
2023/10/15 17:53:03;;;;;;;28.90;11.80;;;;;;;9.44;59.76;98834.14;106118;1254;95261;-87
2023/10/15 17:55:33;;;;;;;22.70;8.70;;;;;;;9.38;59.76;98834.39;105923;1260;95349;-90
2023/10/15 17:58:01;;;;;;;26.80;10.10;;;;;;;9.35;59.78;98837.14;105908;1259;108469;-90
2023/10/15 18:00:32;;;;;;;27.00;10.40;;;;;;;9.31;59.88;98839.34;105949;1254;95971;-90
2023/10/15 18:03:04;;;;;;;27.50;11.90;;;;;;;9.28;59.86;98835.16;105970;1254;107276;-91
2023/10/15 18:05:36;;;;;;;27.80;12.10;;;;;;;9.24;59.92;98836.48;106051;1254;95278;-89
2023/10/15 18:08:05;;;;;;;30.40;11.80;;;;;;;9.18;59.96;98836.70;105899;1254;95242;-90
2023/10/15 18:10:33;;;;;;;28.60;11.50;;;;;;;9.16;60.04;98838.27;105941;1255;108517;-90
2023/10/15 18:13:04;;;;;;;30.00;13.20;;;;;;;9.16;60.04;98831.00;105280;1259;637023;-90
2023/10/15 18:15:36;;;;;;;27.80;12.10;;;;;;;9.11;59.98;98835.44;105478;1264;107507;-90
2023/10/15 18:18:06;;;;;;;25.80;12.00;;;;;;;9.02;59.99;98835.20;105590;1264;95511;-89
2023/10/15 18:20:35;;;;;;;26.60;11.50;;;;;;;8.90;59.99;98841.52;105662;1263;95256;-89
2023/10/15 18:23:08;;;;;;;26.80;12.00;;;;;;;8.83;60.16;98841.63;105727;1262;108569;-90
2023/10/15 18:25:37;;;;;;;29.00;12.10;;;;;;;8.80;60.21;98845.50;105434;1266;96537;-91
2023/10/15 18:28:38;;;;;;;26.50;11.10;;;;;;;8.79;60.26;98847.14;105674;1262;107765;-89
2023/10/15 18:31:06;;;;;;;26.00;10.60;;;;;;;8.79;60.35;98853.00;105578;1262;96172;-90
2023/10/15 18:33:34;;;;;;;25.80;11.20;;;;;;;8.78;60.23;98854.48;105559;1264;95276;-89
2023/10/15 18:40:10;;;;;;;35.20;16.60;;;;;;;8.71;60.30;98864.69;105442;1263;95591;-90
2023/10/15 18:42:39;;;;;;;43.30;22.70;;;;;;;8.65;60.33;98867.20;105511;1259;108215;-89
2023/10/15 18:45:10;;;;;;;42.10;21.10;;;;;;;8.63;60.43;98868.04;105596;1260;95365;-90
2023/10/15 18:47:42;;;;;;;43.20;21.70;;;;;;;8.58;60.33;98877.60;105586;1264;95169;-90
2023/10/15 18:50:10;;;;;;;44.80;21.20;;;;;;;8.48;60.26;98878.58;105527;1260;108671;-91
2023/10/15 18:53:13;;;;;;;38.60;18.50;;;;;;;8.44;60.31;98883.98;105503;1259;95542;-89
2023/10/15 18:55:45;;;;;;;34.60;15.20;;;;;;;8.38;60.36;98888.45;105417;1263;106445;-91
2023/10/15 19:05:13;;;;;;;26.40;10.90;;;;;;;8.26;60.56;98909.91;105521;1263;108663;-90
2023/10/15 19:07:42;;;;;;;;;;;;;;;8.22;60.64;98918.09;105441;1264;95523;-90
2023/10/15 19:10:16;;;;;;;29.20;11.40;;;;;;;8.17;60.54;98923.85;105315;1262;107304;-90
2023/10/15 19:12:48;;;;;;;27.10;9.80;;;;;;;8.17;60.74;98921.02;105579;1265;95088;-90
2023/10/15 19:15:18;;;;;;;26.30;9.80;;;;;;;8.22;60.86;98919.73;105915;1266;95332;-89
2023/10/15 19:17:51;;;;;;;28.50;10.40;;;;;;;8.27;60.72;98923.10;105771;1260;108826;-90
2023/10/15 19:20:42;;;;;;;29.90;11.00;;;;;;;8.34;61.02;98917.99;105822;1260;95568;-90
2023/10/15 19:23:12;;;;;;;30.00;12.20;;;;;;;8.41;60.93;98922.87;105618;1263;108029;-90
2023/10/15 19:25:43;;;;;;;30.80;13.60;;;;;;;8.48;61.02;98922.08;105530;1262;95238;-90
2023/10/15 19:28:14;;;;;;;30.90;12.80;;;;;;;8.55;60.93;98926.08;105672;1263;95323;-90
2023/10/15 19:30:44;;;;;;;31.00;12.10;;;;;;;8.60;61.11;98928.73;105774;1259;108046;-90
2023/10/15 19:33:31;;;;;;;;;;;;;;;;;;;;;
2023/10/15 19:36:27;;;;;;;29.90;11.20;;;;;;;8.72;61.26;98930.92;106069;1262;107718;-91
2023/10/15 19:38:55;;;;;;;27.30;11.00;;;;;;;8.76;61.31;98931.02;106712;1260;95167;-88
2023/10/15 19:41:31;;;;;;;27.30;10.40;;;;;;;8.79;61.25;98931.13;107730;1259;93579;-91
2023/10/15 19:43:59;;;;;;;26.60;10.80;;;;;;;8.84;61.17;98928.93;107495;1260;107322;-89
2023/10/15 19:46:34;;;;;;;26.00;10.10;;;;;;;8.88;61.30;98929.85;107696;1260;95171;-91
2023/10/15 19:49:05;;;;;;;25.80;9.60;;;;;;;8.90;61.30;98928.31;107685;1259;109466;-91
2023/10/15 19:51:40;;;;;;;24.80;8.80;;;;;;;8.91;61.40;98924.33;107624;1260;94441;-91
2023/10/15 19:54:10;;;;;;;25.50;10.20;;;;;;;8.95;61.40;98927.27;107936;1259;94259;-89
2023/10/15 19:56:39;;;;;;;24.50;9.10;;;;;;;8.99;61.41;98932.86;108036;1260;107216;-92
2023/10/15 19:59:11;;;;;;;25.40;9.00;;;;;;;9.01;61.54;98938.53;108102;1260;95130;-89
2023/10/15 20:01:39;;;;;;;22.40;8.20;;;;;;;9.01;61.44;98936.73;107524;1260;106891;-89
2023/10/15 20:04:54;;;;;;;21.30;7.90;;;;;;;9.01;61.55;98941.56;106257;1261;95462;-88
2023/10/15 20:10:38;;;;;;;33.50;12.30;;;;;;;8.94;61.55;98936.56;105742;1261;108028;-88
2023/10/15 20:13:07;;;;;;;30.50;11.70;;;;;;;8.92;61.53;98941.41;105887;1262;95279;-90
2023/10/15 20:15:35;;;;;;;41.40;16.40;;;;;;;8.88;61.47;98942.58;106059;1259;107748;-89
2023/10/15 20:18:04;;;;;;;37.10;15.30;;;;;;;8.83;61.58;98943.45;105793;1261;95353;-90
2023/10/15 20:20:33;;;;;;;34.70;13.10;;;;;;;8.76;61.69;98944.14;105779;1263;95720;-90
2023/10/15 20:23:03;;;;;;;37.20;14.80;;;;;;;8.70;61.74;98947.17;105602;1260;108687;-90
2023/10/15 20:25:40;;;;;;;33.50;13.60;;;;;;;8.64;61.62;98939.77;105946;1263;95555;-90
2023/10/15 20:28:22;;;;;;;33.40;13.80;;;;;;;8.59;61.65;98940.14;105746;1262;107223;-90
2023/10/15 20:30:50;;;;;;;27.50;11.50;;;;;;;8.53;61.70;98940.70;105771;1260;95336;-91
2023/10/15 20:33:19;;;;;;;27.20;9.70;;;;;;;8.48;61.78;98937.44;105830;1261;95190;-90
2023/10/15 20:35:48;;;;;;;28.00;10.70;;;;;;;8.43;61.72;98938.44;105784;1262;109158;-91
2023/10/15 20:38:20;;;;;;;31.20;12.40;;;;;;;8.39;61.70;98942.42;105810;1260;95678;-91
2023/10/15 20:40:48;;;;;;;24.20;9.40;;;;;;;8.31;61.83;98947.52;105789;1265;107720;-90
2023/10/15 20:43:21;;;;;;;24.80;9.50;;;;;;;8.26;61.66;98946.45;105674;1260;95342;-91
2023/10/15 20:45:49;;;;;;;25.50;9.80;;;;;;;8.21;61.87;98947.52;105773;1259;96079;-90
2023/10/15 20:48:18;;;;;;;25.70;10.00;;;;;;;8.15;61.90;98948.19;105972;1260;108266;-88
2023/10/15 20:50:48;;;;;;;23.90;8.60;;;;;;;8.10;61.87;98945.56;105702;1263;95341;-90
2023/10/15 20:53:20;;;;;;;27.00;8.80;;;;;;;8.06;61.86;98944.40;105841;1260;107728;-88
2023/10/15 20:55:56;;;;;;;25.30;8.90;;;;;;;8.04;61.88;98945.37;105730;1264;95594;-90
2023/10/15 20:58:27;;;;;;;20.90;8.30;;;;;;;8.01;61.96;98943.08;105956;1262;95400;-91
2023/10/15 21:00:56;;;;;;;21.40;7.20;;;;;;;8.00;61.97;98940.91;106166;1259;108612;-90
2023/10/15 21:03:26;;;;;;;22.50;7.30;;;;;;;7.96;61.98;98940.59;106029;1263;95283;-91
2023/10/15 21:05:55;;;;;;;21.20;7.80;;;;;;;7.94;62.01;98937.22;108318;1259;107796;-91
2023/10/15 21:08:23;;;;;;;23.50;7.80;;;;;;;7.88;61.86;98941.08;108279;1259;94441;-92
2023/10/15 21:10:54;;;;;;;19.80;7.10;;;;;;;7.83;62.01;98936.96;108373;1259;94351;-92
2023/10/15 21:13:24;;;;;;;20.50;6.70;;;;;;;7.79;62.17;98939.71;108331;1260;109544;-92
2023/10/15 21:15:54;;;;;;;16.70;6.40;;;;;;;7.77;62.02;98939.30;108346;1259;95533;-91
2023/10/15 21:18:25;;;;;;;23.00;6.40;;;;;;;7.76;62.24;98946.65;108164;1260;107075;-92
2023/10/15 21:20:54;;;;;;;20.90;6.00;;;;;;;7.71;62.44;98956.10;108338;1259;94325;-92
2023/10/15 21:23:23;;;;;;;19.80;5.70;;;;;;;7.66;62.39;98961.54;108326;1260;94292;-92
2023/10/15 21:25:51;;;;;;;23.30;5.90;;;;;;;7.63;62.25;98966.31;108272;1260;109963;-92
2023/10/15 21:28:19;;;;;;;17.60;5.40;;;;;;;7.63;62.15;98966.88;108264;1259;95586;-91
2023/10/15 21:30:48;;;;;;;18.00;5.40;;;;;;;7.60;62.19;98968.23;108257;1259;108687;-92
2023/10/15 21:33:17;;;;;;;17.40;5.10;;;;;;;7.60;62.35;98969.66;108216;1260;94260;-92
2023/10/15 21:35:45;;;;;;;19.60;5.30;;;;;;;7.60;62.36;98976.58;108362;1259;94386;-92
2023/10/15 21:38:15;;;;;;;17.10;5.00;;;;;;;7.57;62.34;98979.92;108363;1259;108608;-92
2023/10/15 21:40:44;;;;;;;16.40;4.80;;;;;;;7.52;62.30;98979.54;108346;1259;95516;-92
2023/10/15 21:43:12;;;;;;;16.50;4.90;;;;;;;7.52;62.44;98981.30;108236;1265;107708;-92
2023/10/15 21:45:45;;;;;;;14.20;4.80;;;;;;;7.51;62.45;98983.13;108384;1259;94348;-92
2023/10/15 21:48:14;;;;;;;19.50;5.10;;;;;;;7.51;62.42;98980.66;108327;1259;95100;-91
2023/10/15 21:50:45;;;;;;;14.30;4.40;;;;;;;7.52;62.42;98981.98;108341;1259;108577;-92
2023/10/15 21:53:13;;;;;;;13.40;4.40;;;;;;;7.52;62.49;98979.70;108278;1260;95709;-92
2023/10/15 21:55:42;;;;;;;18.30;4.80;;;;;;;7.50;62.37;98981.91;108315;1259;107076;-92
2023/10/15 21:58:11;;;;;;;14.50;4.80;;;;;;;7.49;62.42;98983.95;108342;1259;94411;-89
2023/10/15 22:00:40;;;;;;;14.60;4.00;;;;;;;7.51;62.44;98983.45;108353;1259;94332;-91
2023/10/15 22:03:11;;;;;;;17.90;5.50;;;;;;;7.52;62.48;98986.23;108281;1259;109854;-92
2023/10/15 22:05:41;;;;;;;16.70;4.70;;;;;;;7.51;62.45;98985.92;108383;1259;95490;-91
2023/10/15 22:08:11;;;;;;;17.80;5.30;;;;;;;7.49;62.58;98985.55;108347;1259;107121;-93
2023/10/15 22:10:44;;;;;;;13.50;4.30;;;;;;;7.47;62.64;98986.02;108308;1259;94484;-91
2023/10/15 22:13:18;;;;;;;15.80;4.80;;;;;;;7.45;62.50;98988.43;108326;1259;94380;-91
2023/10/15 22:15:52;;;;;;;14.50;5.30;;;;;;;7.42;62.58;98986.98;108391;1259;109501;-92
2023/10/15 22:18:27;;;;;;;17.80;5.50;;;;;;;7.38;62.56;98989.17;108353;1259;95630;-92
2023/10/15 22:20:57;;;;;;;15.10;5.30;;;;;;;7.35;62.65;98989.20;108267;1259;107709;-91
2023/10/15 22:23:26;;;;;;;17.50;5.10;;;;;;;7.34;62.86;98992.94;108325;1260;94364;-92
2023/10/15 22:25:54;;;;;;;15.40;5.30;;;;;;;7.34;62.88;98991.17;108325;1259;94591;-88
2023/10/15 22:28:25;;;;;;;16.90;5.70;;;;;;;7.35;62.75;98991.98;108371;1259;108604;-88
2023/10/15 22:30:54;;;;;;;16.50;5.30;;;;;;;7.33;62.91;98993.73;108382;1260;94440;-89
2023/10/15 22:33:26;;;;;;;20.80;6.00;;;;;;;7.29;62.85;98998.16;108318;1259;107680;-88
2023/10/15 22:35:58;;;;;;;19.10;5.80;;;;;;;7.29;63.02;99002.77;108344;1259;94355;-89
2023/10/15 22:38:26;;;;;;;18.00;5.20;;;;;;;7.28;62.90;98999.13;108192;1260;94352;-89
2023/10/15 22:40:58;;;;;;;14.80;5.50;;;;;;;7.26;62.95;98994.86;108351;1259;110552;-87
2023/10/15 22:43:26;;;;;;;19.50;6.10;;;;;;;7.23;62.92;98992.71;108342;1259;95080;-89
2023/10/15 22:45:54;;;;;;;18.10;6.50;;;;;;;7.22;63.00;98998.46;108239;1259;107637;-88
2023/10/15 22:48:26;;;;;;;19.10;6.70;;;;;;;7.21;63.10;98999.02;108226;1259;95604;-88
2023/10/15 22:50:55;;;;;;;20.30;6.60;;;;;;;7.18;63.21;99001.87;108382;1259;94642;-88
2023/10/15 22:53:23;;;;;;;21.10;6.60;;;;;;;7.14;63.18;99006.16;108395;1259;109309;-90
2023/10/15 22:55:52;;;;;;;17.00;6.40;;;;;;;7.12;63.37;99009.79;108255;1259;95508;-90
2023/10/15 22:58:23;;;;;;;19.60;5.50;;;;;;;7.10;63.42;99007.63;108354;1259;106856;-89
2023/10/15 23:00:53;;;;;;;18.50;6.00;;;;;;;7.09;63.52;99009.41;108291;1260;94263;-89
2023/10/15 23:03:21;;;;;;;21.00;5.50;;;;;;;7.09;63.43;99011.73;108351;1259;94307;-90
2023/10/15 23:05:50;;;;;;;19.60;5.80;;;;;;;7.08;63.82;99014.96;108396;1259;108622;-89
2023/10/15 23:08:18;;;;;;;18.80;5.70;;;;;;;7.07;63.69;99020.85;108261;1259;95795;-89
2023/10/15 23:10:50;;;;;;;15.70;5.00;;;;;;;7.04;63.86;99021.91;108215;1260;107239;-90
2023/10/15 23:13:18;;;;;;;16.30;5.90;;;;;;;7.01;63.47;99025.76;108329;1263;94345;-90
2023/10/15 23:15:47;;;;;;;16.90;6.30;;;;;;;7.01;63.63;99029.83;108338;1259;94308;-88
2023/10/15 23:18:20;;;;;;;20.50;6.70;;;;;;;7.02;63.78;99036.64;108356;1259;109869;-88
2023/10/15 23:20:50;;;;;;;17.60;5.70;;;;;;;7.01;63.95;99040.58;108386;1259;94433;-89
2023/10/15 23:23:20;;;;;;;18.00;5.50;;;;;;;6.98;63.80;99041.77;108322;1259;107672;-89
2023/10/15 23:25:52;;;;;;;14.30;6.00;;;;;;;6.97;63.82;99041.15;108265;1260;94394;-89
2023/10/15 23:28:23;;;;;;;13.80;4.90;;;;;;;6.96;63.63;99046.15;108425;1259;94307;-90
2023/10/15 23:30:55;;;;;;;19.50;5.40;;;;;;;6.98;63.80;99048.69;108416;1259;107841;-89
2023/10/15 23:33:28;;;;;;;14.60;4.40;;;;;;;6.98;63.72;99054.85;108356;1259;95530;-90
2023/10/15 23:35:58;;;;;;;16.70;5.80;;;;;;;6.97;63.76;99056.30;108238;1259;107518;-90
2023/10/15 23:38:30;;;;;;;13.60;5.10;;;;;;;6.97;63.73;99053.30;108358;1260;94503;-89
2023/10/15 23:41:04;;;;;;;16.40;5.10;;;;;;;6.99;63.83;99057.95;108365;1259;94439;-91
2023/10/15 23:43:36;;;;;;;14.20;4.70;;;;;;;7.00;63.86;99057.90;108379;1259;110150;-91
2023/10/15 23:46:07;;;;;;;18.30;6.30;;;;;;;7.01;63.78;99062.46;108272;1259;95559;-91
2023/10/15 23:48:38;;;;;;;14.10;5.30;;;;;;;6.99;63.80;99064.98;108329;1259;107765;-90
2023/10/15 23:51:14;;;;;;;16.30;5.00;;;;;;;6.95;63.83;99066.29;108321;1259;94283;-91
2023/10/15 23:53:44;;;;;;;15.80;5.10;;;;;;;6.93;63.93;99070.86;108373;1260;95711;-91
2023/10/15 23:56:13;;;;;;;12.40;4.50;;;;;;;6.92;63.79;99074.98;108333;1260;109483;-91
2023/10/15 23:58:58;;;;;;;21.30;5.60;;;;;;;6.87;64.11;99075.39;108355;1261;94379;-91
